Time;durP1;ratioP1;P1;durP2;ratioP2;P2;SDS_P1;SDS_P2;PMS_P1;PMS_P2;Temp;Humidity;BMP_temperature;BMP_pressure;BME280_temperature;BME280_humidity;BME280_pressure;Samples;Min_cycle;Max_cycle;Signal;HPM_P1;HPM_P2
2023/05/26 00:00:59;;;;;;;32.45;5.93;;;7.30;1.00;;;;;;5077790;28;20044;-26
2023/05/26 00:03:28;;;;;;;33.25;6.10;;;7.30;99.90;;;;;;5095870;28;20078;-26
2023/05/26 00:05:54;;;;;;;34.35;7.03;;;7.40;1.00;;;;;;5096060;28;20387;-26
2023/05/26 00:08:22;;;;;;;31.25;6.45;;;7.40;1.00;;;;;;5095412;28;20036;-27
2023/05/26 00:10:48;;;;;;;34.00;6.95;;;7.40;1.00;;;;;;5095749;28;20056;-26
2023/05/26 00:13:14;;;;;;;32.05;7.13;;;7.30;1.00;;;;;;5095622;28;20040;-27
2023/05/26 00:15:40;;;;;;;35.40;5.78;;;7.30;1.00;;;;;;5077406;28;20395;-27
2023/05/26 00:18:07;;;;;;;41.40;7.88;;;7.30;99.90;;;;;;5094533;28;20047;-27
2023/05/26 00:20:33;;;;;;;32.20;6.93;;;7.20;1.00;;;;;;5095199;28;20440;-26
2023/05/26 00:22:59;;;;;;;37.42;6.47;;;7.20;1.00;;;;;;5095155;28;20518;-27
2023/05/26 00:25:25;;;;;;;35.47;5.85;;;7.20;1.00;;;;;;5095393;28;20044;-27
2023/05/26 00:27:51;;;;;;;29.52;5.32;;;7.20;1.00;;;;;;5095394;28;20135;-27
2023/05/26 00:30:17;;;;;;;36.92;6.45;;;7.20;1.00;;;;;;5095192;28;20051;-27
2023/05/26 00:32:43;;;;;;;31.67;5.43;;;7.10;1.00;;;;;;5095272;28;20050;-27
2023/05/26 00:35:09;;;;;;;34.10;6.15;;;7.10;1.00;;;;;;5093912;28;20110;-26
2023/05/26 00:37:34;;;;;;;32.83;6.68;;;7.10;1.00;;;;;;5095101;28;20093;-27
2023/05/26 00:40:00;;;;;;;27.13;5.45;;;7.10;1.00;;;;;;5093800;28;20048;-27
2023/05/26 00:42:26;;;;;;;32.60;6.40;;;7.00;1.00;;;;;;5077738;28;20127;-27
2023/05/26 00:44:52;;;;;;;38.53;7.20;;;7.00;1.00;;;;;;5094010;28;20047;-26
2023/05/26 00:47:18;;;;;;;26.67;4.75;;;7.00;1.00;;;;;;5094941;28;20048;-26
2023/05/26 00:49:45;;;;;;;30.38;5.35;;;6.90;1.00;;;;;;5094931;28;20131;-27
2023/05/26 00:52:11;;;;;;;37.72;5.78;;;6.70;1.00;;;;;;5094835;28;20505;-28
2023/05/26 00:54:41;;;;;;;27.95;6.07;;;6.70;1.00;;;;;;5094317;28;20428;-26
2023/05/26 00:57:07;;;;;;;36.78;7.03;;;6.70;1.00;;;;;;5094858;28;20056;-27
2023/05/26 00:59:33;;;;;;;30.10;6.03;;;6.60;1.00;;;;;;5094006;28;20051;-27
2023/05/26 01:02:00;;;;;;;27.17;6.00;;;6.60;1.00;;;;;;5095279;28;20150;-27
2023/05/26 01:04:27;;;;;;;32.13;7.00;;;6.50;1.00;;;;;;5094273;28;20091;-27
2023/05/26 01:06:53;;;;;;;36.63;7.03;;;6.50;1.00;;;;;;5095417;28;20414;-26
2023/05/26 01:09:20;;;;;;;28.92;5.80;;;6.40;1.00;;;;;;5094553;28;20050;-27
2023/05/26 01:12:01;;;;;;;35.92;5.75;;;6.40;16.60;;;;;;5094798;28;20044;-27
2023/05/26 01:14:44;;;;;;;35.42;7.15;;;6.30;1.00;;;;;;5093487;28;20062;-27
2023/05/26 01:17:36;;;;;;;24.42;5.63;;;6.40;27.60;;;;;;5094533;28;20131;-27
2023/05/26 01:20:10;;;;;;;29.77;6.82;;;6.30;53.40;;;;;;5072766;28;20059;-26
2023/05/26 01:22:50;;;;;;;32.70;7.05;;;6.50;99.90;;;;;;5094350;28;20040;-26
2023/05/26 01:25:39;;;;;;;32.15;5.60;;;6.50;99.90;;;;;;5094281;28;20054;-27
2023/05/26 01:28:09;;;;;;;31.83;6.40;;;6.40;99.90;;;;;;5094286;28;20044;-27
2023/05/26 01:30:35;;;;;;;37.20;6.45;;;6.40;99.00;;;;;;5094093;28;20048;-26
2023/05/26 01:33:01;;;;;;;32.70;6.80;;;6.40;35.00;;;;;;5093196;28;20462;-27
2023/05/26 01:35:27;;;;;;;32.28;6.03;;;6.40;56.10;;;;;;5092918;28;20068;-27
2023/05/26 01:37:54;;;;;;;29.05;5.30;;;6.50;99.90;;;;;;5094058;28;20105;-26
2023/05/26 01:40:21;;;;;;;27.60;5.50;;;6.50;90.90;;;;;;5093102;28;20055;-26
2023/05/26 01:42:58;;;;;;;39.80;7.70;;;6.60;99.90;;;;;;5093354;28;20040;-27
2023/05/26 01:45:27;;;;;;;34.13;5.47;;;6.60;99.90;;;;;;5092818;28;20046;-26
2023/05/26 01:47:59;;;;;;;23.40;5.53;;;6.60;99.90;;;;;;5093961;28;20083;-27
2023/05/26 01:50:38;;;;;;;34.20;7.07;;;6.60;99.90;;;;;;5093950;28;20048;-26
2023/05/26 01:53:07;;;;;;;35.40;6.07;;;6.60;99.90;;;;;;5095091;28;20059;-27
2023/05/26 01:55:36;;;;;;;33.00;6.75;;;6.50;99.90;;;;;;5092582;28;20073;-26
2023/05/26 01:58:02;;;;;;;38.80;6.78;;;6.60;99.90;;;;;;5093842;28;20043;-26
2023/05/26 02:00:28;;;;;;;31.63;7.32;;;6.50;99.90;;;;;;5092809;28;20047;-26
2023/05/26 02:02:54;;;;;;;25.75;6.55;;;6.60;99.90;;;;;;5093731;28;20094;-26
2023/05/26 02:05:20;;;;;;;33.85;5.15;;;6.50;81.30;;;;;;5094334;28;20115;-27
2023/05/26 02:07:46;;;;;;;30.58;5.65;;;6.60;85.10;;;;;;5093695;28;20087;-27
2023/05/26 02:10:12;;;;;;;40.80;7.20;;;6.60;74.70;;;;;;5093676;28;20060;-28
2023/05/26 02:12:37;;;;;;;44.10;7.57;;;6.50;90.40;;;;;;5093645;28;20055;-26
2023/05/26 02:15:04;;;;;;;31.13;5.53;;;6.50;99.90;;;;;;5093552;28;20040;-26
2023/05/26 02:17:30;;;;;;;32.05;6.50;;;6.40;85.60;;;;;;5097889;28;20484;-27
2023/05/26 02:19:57;;;;;;;34.85;5.90;;;6.40;64.30;;;;;;5096602;28;20493;-27
2023/05/26 02:22:23;;;;;;;32.58;6.15;;;6.40;77.30;;;;;;5096623;28;20123;-26
2023/05/26 02:24:49;;;;;;;38.70;6.47;;;6.40;97.60;;;;;;5098200;28;20158;-27
2023/05/26 02:27:15;;;;;;;33.10;6.03;;;6.30;93.80;;;;;;5097658;28;20075;-27
2023/05/26 02:29:41;;;;;;;41.47;7.18;;;6.20;98.80;;;;;;5097570;28;20078;-27
2023/05/26 02:32:07;;;;;;;29.70;5.95;;;6.20;98.30;;;;;;5097274;28;20118;-26
2023/05/26 02:34:32;;;;;;;32.15;5.65;;;6.30;99.90;;;;;;5097454;28;20044;-26
2023/05/26 02:36:59;;;;;;;31.35;5.50;;;6.20;99.90;;;;;;5096796;28;20406;-26
2023/05/26 02:39:25;;;;;;;40.70;7.03;;;6.30;99.90;;;;;;5098268;28;20429;-26
2023/05/26 02:41:52;;;;;;;29.20;5.40;;;6.30;99.90;;;;;;5096451;28;20056;-27
2023/05/26 02:44:18;;;;;;;38.85;5.22;;;6.30;99.90;;;;;;5097412;28;20044;-27
2023/05/26 02:46:43;;;;;;;36.85;6.20;;;6.30;99.90;;;;;;5097352;28;20116;-27
2023/05/26 02:49:09;;;;;;;41.63;6.47;;;6.30;99.90;;;;;;5097239;28;20127;-27
2023/05/26 02:51:35;;;;;;;37.72;7.22;;;6.40;99.90;;;;;;5096828;28;20052;-26
2023/05/26 02:54:01;;;;;;;29.08;5.03;;;6.40;99.90;;;;;;5097048;28;20044;-26
2023/05/26 02:56:27;;;;;;;36.67;7.35;;;6.40;99.90;;;;;;5097135;28;20048;-26
2023/05/26 02:58:52;;;;;;;32.67;5.60;;;6.50;99.90;;;;;;5096926;28;20052;-27
2023/05/26 03:01:18;;;;;;;35.05;6.32;;;6.50;99.90;;;;;;5095803;28;20079;-26
2023/05/26 03:03:44;;;;;;;35.05;8.00;;;6.60;99.90;;;;;;5096979;28;20047;-26
2023/05/26 03:06:10;;;;;;;34.85;5.90;;;6.70;99.90;;;;;;5096871;28;20051;-26
2023/05/26 03:08:37;;;;;;;27.77;6.90;;;6.70;99.90;;;;;;5096882;28;20047;-27
2023/05/26 03:11:04;;;;;;;41.05;6.88;;;6.60;99.90;;;;;;5096820;28;20453;-26
2023/05/26 03:13:29;;;;;;;38.60;7.50;;;6.70;99.90;;;;;;5096493;28;20400;-26
2023/05/26 03:15:55;;;;;;;35.28;5.47;;;6.70;99.90;;;;;;5096672;28;20036;-26
2023/05/26 03:18:21;;;;;;;37.53;6.82;;;6.60;99.90;;;;;;5078837;28;20386;-27
2023/05/26 03:20:46;;;;;;;27.15;4.65;;;6.50;99.90;;;;;;5096000;28;20052;-26
2023/05/26 03:23:17;;;;;;;30.50;6.95;;;6.60;99.90;;;;;;5096892;28;20396;-26
2023/05/26 03:25:43;;;;;;;31.85;5.93;;;6.50;99.90;;;;;;5096252;28;20433;-26
2023/05/26 03:28:08;;;;;;;34.28;6.15;;;6.40;99.90;;;;;;5095121;28;20048;-26
2023/05/26 03:30:34;;;;;;;32.65;5.50;;;6.40;99.90;;;;;;5096373;28;20051;-26
2023/05/26 03:33:01;;;;;;;25.98;5.65;;;6.40;99.90;;;;;;5096154;28;20082;-26
2023/05/26 03:35:26;;;;;;;28.40;5.28;;;6.40;99.90;;;;;;5078702;28;20127;-26
2023/05/26 03:37:52;;;;;;;35.88;7.38;;;6.40;99.90;;;;;;5096348;28;20126;-26
2023/05/26 03:40:18;;;;;;;31.20;6.18;;;6.40;99.90;;;;;;5096560;28;20150;-26
2023/05/26 03:42:44;;;;;;;30.92;5.95;;;6.40;99.90;;;;;;5096225;28;20525;-26
2023/05/26 03:45:10;;;;;;;32.35;6.85;;;6.40;99.90;;;;;;5096770;28;20127;-26
2023/05/26 03:47:36;;;;;;;31.65;5.45;;;6.50;99.90;;;;;;5095874;28;20498;-26
2023/05/26 03:50:02;;;;;;;28.40;4.60;;;6.60;99.90;;;;;;5096715;28;20047;-26
2023/05/26 03:52:28;;;;;;;30.98;6.75;;;6.60;99.90;;;;;;5061083;28;20060;-27
2023/05/26 03:54:53;;;;;;;29.33;6.35;;;6.70;99.90;;;;;;5095932;28;20048;-26
2023/05/26 03:57:19;;;;;;;30.17;5.50;;;6.70;99.90;;;;;;5095970;28;20043;-26
2023/05/26 03:59:45;;;;;;;36.45;6.28;;;6.80;99.90;;;;;;5095917;28;20051;-26
2023/05/26 04:02:10;;;;;;;34.03;5.97;;;6.70;99.90;;;;;;5096413;28;20044;-26
2023/05/26 04:04:36;;;;;;;37.03;7.70;;;6.70;99.90;;;;;;5094685;28;20044;-26
2023/05/26 04:07:03;;;;;;;45.97;8.55;;;6.80;99.90;;;;;;5095776;28;20040;-26
2023/05/26 04:09:29;;;;;;;38.67;5.97;;;6.80;99.90;;;;;;5095740;28;20051;-26
2023/05/26 04:11:55;;;;;;;29.02;6.10;;;6.80;99.90;;;;;;5096003;28;20043;-26
2023/05/26 04:14:20;;;;;;;25.70;6.30;;;6.80;99.90;;;;;;5095586;28;20051;-26
2023/05/26 04:16:46;;;;;;;33.85;7.47;;;6.80;99.90;;;;;;5095559;28;20079;-26
2023/05/26 04:19:12;;;;;;;23.05;6.00;;;7.00;99.90;;;;;;5095531;28;20487;-26
2023/05/26 04:21:37;;;;;;;31.25;6.63;;;7.10;99.90;;;;;;5094556;28;20055;-26
2023/05/26 04:24:03;;;;;;;30.45;6.07;;;7.20;99.90;;;;;;5095998;28;20079;-27
2023/05/26 04:26:33;;;;;;;31.52;5.68;;;7.20;99.90;;;;;;5094443;28;20476;-27
2023/05/26 04:29:02;;;;;;;30.05;6.45;;;7.30;99.90;;;;;;5094074;28;20135;-26
2023/05/26 04:31:31;;;;;;;31.92;5.18;;;7.50;99.90;;;;;;5095253;28;20083;-26
2023/05/26 04:33:57;;;;;;;30.67;6.32;;;7.60;99.90;;;;;;5095101;28;20079;-26
2023/05/26 04:36:24;;;;;;;29.50;5.30;;;7.70;99.90;;;;;;5095140;28;20086;-26
2023/05/26 04:38:51;;;;;;;38.10;5.53;;;7.80;99.90;;;;;;5094186;28;20044;-27
2023/05/26 04:41:18;;;;;;;29.42;5.43;;;8.00;99.90;;;;;;5095808;28;20102;-26
2023/05/26 04:43:45;;;;;;;25.55;4.70;;;8.00;99.90;;;;;;5094018;28;20407;-27
2023/05/26 04:46:11;;;;;;;35.08;5.47;;;8.10;99.90;;;;;;5095815;28;20054;-26
2023/05/26 04:48:37;;;;;;;29.80;5.35;;;8.20;99.90;;;;;;5095279;28;20479;-27
2023/05/26 04:51:07;;;;;;;34.10;5.78;;;8.30;99.90;;;;;;5094692;28;20091;-28
2023/05/26 04:53:33;;;;;;;28.10;6.10;;;8.40;99.90;;;;;;5095387;28;20043;-26
2023/05/26 04:56:01;;;;;;;25.70;4.78;;;8.50;99.90;;;;;;5093770;28;20471;-26
2023/05/26 04:58:27;;;;;;;27.85;5.25;;;8.60;99.90;;;;;;5095299;28;20050;-27
2023/05/26 05:00:55;;;;;;;31.08;5.78;;;8.70;99.90;;;;;;5094722;28;20079;-27
2023/05/26 05:03:21;;;;;;;26.83;4.70;;;8.80;99.90;;;;;;5093435;28;20123;-26
2023/05/26 05:05:47;;;;;;;32.30;5.38;;;9.00;99.90;;;;;;5094525;28;20126;-28
2023/05/26 05:08:13;;;;;;;22.00;4.25;;;9.00;89.00;;;;;;5093261;28;20047;-27
2023/05/26 05:10:39;;;;;;;35.88;6.45;;;9.20;74.90;;;;;;5095368;28;20411;-27
2023/05/26 05:13:05;;;;;;;29.02;6.43;;;9.20;99.90;;;;;;5094467;28;20047;-26
2023/05/26 05:15:31;;;;;;;23.08;5.00;;;10.50;1.00;;;;;;5094286;28;20055;-26
2023/05/26 05:17:58;;;;;;;30.58;5.70;;;10.50;1.00;;;;;;5094433;28;20134;-27
2023/05/26 05:20:25;;;;;;;27.02;5.18;;;11.20;1.00;;;;;;5093183;28;20399;-27
2023/05/26 05:22:51;;;;;;;24.00;4.30;;;;;;;;;;5093387;28;20056;-26
2023/05/26 05:25:17;;;;;;;21.48;5.60;;;12.30;1.00;;;;;;5093083;28;20044;-26
2023/05/26 05:27:43;;;;;;;20.13;4.43;;;12.70;99.90;;;;;;5094287;28;20047;-26
2023/05/26 05:30:09;;;;;;;27.33;5.10;;;12.80;7.70;;;;;;5094069;28;20044;-26
2023/05/26 05:32:35;;;;;;;26.55;4.88;;;13.20;1.00;;;;;;5093670;28;20500;-26
2023/05/26 05:35:01;;;;;;;28.92;5.78;;;13.40;99.90;;;;;;5094226;28;20135;-28
2023/05/26 05:37:27;;;;;;;23.02;5.35;;;13.40;99.90;;;;;;5093407;28;20097;-26
2023/05/26 05:39:53;;;;;;;26.17;5.47;;;13.50;99.90;;;;;;5093998;28;20413;-27
2023/05/26 05:42:21;;;;;;;22.10;5.35;;;13.50;1.30;;;;;;5094060;28;20052;-26
2023/05/26 05:44:47;;;;;;;26.80;6.00;;;13.60;88.30;;;;;;5094073;28;20051;-26
2023/05/26 05:47:12;;;;;;;27.20;5.82;;;13.70;1.00;;;;;;5092980;28;20044;-28
2023/05/26 05:49:38;;;;;;;26.27;4.78;;;13.90;99.90;;;;;;5093925;28;20055;-27
2023/05/26 05:52:04;;;;;;;23.85;5.45;;;13.90;99.90;;;;;;5092626;28;20048;-27
2023/05/26 05:54:30;;;;;;;25.73;4.13;;;14.00;99.90;;;;;;5093814;28;20074;-26
2023/05/26 05:56:56;;;;;;;28.48;6.60;;;13.80;1.00;;;;;;5093796;28;20044;-26
2023/05/26 05:59:21;;;;;;;27.27;5.55;;;13.80;1.00;;;;;;5075783;28;20135;-27
2023/05/26 06:01:47;;;;;;;22.88;4.18;;;13.90;1.00;;;;;;5093764;28;20048;-27
2023/05/26 06:04:13;;;;;;;18.50;4.22;;;14.00;99.90;;;;;;5093775;28;20055;-27
2023/05/26 06:06:39;;;;;;;24.05;4.50;;;14.10;99.90;;;;;;5093303;28;20468;-27
2023/05/26 06:09:05;;;;;;;22.95;5.78;;;14.40;1.00;;;;;;5092747;28;20088;-26
2023/05/26 06:11:30;;;;;;;25.35;4.05;;;14.70;99.90;;;;;;5093308;28;20411;-26
2023/05/26 06:13:56;;;;;;;26.27;4.65;;;15.10;9.40;;;;;;5094086;28;20044;-27
2023/05/26 06:16:22;;;;;;;21.65;4.45;;;15.30;1.00;;;;;;5092416;28;20177;-26
2023/05/26 06:18:47;;;;;;;21.25;4.63;;;15.40;99.90;;;;;;5093615;28;20087;-26
2023/05/26 06:21:13;;;;;;;22.13;4.03;;;15.30;99.90;;;;;;5093580;28;20085;-27
2023/05/26 06:23:39;;;;;;;13.07;3.55;;;15.10;99.90;;;;;;5075942;28;20395;-26
2023/05/26 06:26:05;;;;;;;23.13;4.47;;;15.10;99.90;;;;;;5094311;28;20043;-26
2023/05/26 06:28:31;;;;;;;21.02;4.53;;;15.20;99.90;;;;;;5094058;28;20040;-25
2023/05/26 06:30:56;;;;;;;21.50;4.82;;;15.40;99.90;;;;;;5093558;28;20048;-27
2023/05/26 06:33:22;;;;;;;26.30;4.70;;;15.40;1.00;;;;;;5093437;28;20048;-27
2023/05/26 06:35:48;;;;;;;20.80;4.70;;;15.60;6.50;;;;;;5093905;28;20460;-27
2023/05/26 06:38:13;;;;;;;26.42;4.40;;;15.40;1.00;;;;;;5076118;28;20044;-27
2023/05/26 06:40:39;;;;;;;23.73;4.63;;;15.50;1.00;;;;;;5093106;28;20040;-27
2023/05/26 06:43:05;;;;;;;20.55;4.65;;;15.90;1.00;;;;;;5093364;28;20040;-28
2023/05/26 06:45:30;;;;;;;14.93;4.43;;;15.90;99.90;;;;;;5092264;28;20131;-28
2023/05/26 06:47:56;;;;;;;17.05;3.53;;;16.00;99.90;;;;;;5093031;28;20131;-29
2023/05/26 06:50:22;;;;;;;18.33;3.90;;;16.00;99.90;;;;;;5092699;28;20051;-28
2023/05/26 06:52:47;;;;;;;18.05;3.83;;;16.10;99.90;;;;;;5092790;28;20525;-29
2023/05/26 06:55:13;;;;;;;18.10;3.88;;;16.20;99.90;;;;;;5093230;28;20048;-28
2023/05/26 06:57:39;;;;;;;17.55;4.22;;;16.30;99.90;;;;;;5093848;28;20100;-27
2023/05/26 07:00:06;;;;;;;14.80;3.42;;;16.30;60.80;;;;;;5093293;28;20048;-27
2023/05/26 07:02:31;;;;;;;18.17;4.30;;;16.30;38.00;;;;;;5095276;28;20078;-28
2023/05/26 07:04:57;;;;;;;19.27;4.20;;;16.50;99.90;;;;;;5096426;28;20037;-27
2023/05/26 07:07:23;;;;;;;17.38;3.13;;;16.80;99.90;;;;;;5097277;28;20071;-28
2023/05/26 07:09:48;;;;;;;13.60;2.90;;;16.90;5.20;;;;;;5095977;28;20391;-28
2023/05/26 07:12:14;;;;;;;13.90;3.58;;;16.70;6.90;;;;;;5096763;28;20086;-29
2023/05/26 07:14:40;;;;;;;16.67;4.30;;;16.90;1.00;;;;;;5096826;28;20051;-28
2023/05/26 07:17:06;;;;;;;17.75;3.40;;;16.70;1.00;;;;;;5097106;28;20453;-28
2023/05/26 07:19:32;;;;;;;17.45;3.42;;;16.80;1.00;;;;;;5096701;28;20048;-28
2023/05/26 07:21:58;;;;;;;18.55;3.92;;;16.60;1.00;;;;;;5095777;28;20459;-27
2023/05/26 07:24:24;;;;;;;17.08;3.70;;;16.70;1.00;;;;;;5096663;28;20048;-28
2023/05/26 07:26:50;;;;;;;18.33;3.42;;;16.60;1.00;;;;;;5097450;28;20048;-28
2023/05/26 07:29:15;;;;;;;16.13;3.00;;;16.80;1.00;;;;;;5095680;28;20479;-28
2023/05/26 07:31:41;;;;;;;19.00;3.97;;;16.90;1.00;;;;;;5095537;28;20083;-29
2023/05/26 07:34:07;;;;;;;12.63;3.03;;;16.90;1.00;;;;;;5097192;28;20079;-28
2023/05/26 07:36:34;;;;;;;12.18;2.70;;;16.70;1.00;;;;;;5078154;28;20077;-27
2023/05/26 07:39:00;;;;;;;10.43;3.03;;;16.50;1.00;;;;;;5096202;28;20055;-27
2023/05/26 07:41:26;;;;;;;17.67;3.17;;;16.50;1.00;;;;;;5096231;28;20453;-27
2023/05/26 07:43:51;;;;;;;14.60;3.20;;;16.40;1.00;;;;;;5096757;28;20048;-28
2023/05/26 07:46:17;;;;;;;20.35;3.65;;;16.60;1.00;;;;;;5096247;28;20352;-28
2023/05/26 07:48:43;;;;;;;15.90;3.20;;;16.60;1.00;;;;;;5095209;28;20044;-27
2023/05/26 07:51:09;;;;;;;15.65;3.20;;;16.90;1.00;;;;;;5094749;28;20063;-28
2023/05/26 07:53:35;;;;;;;17.50;2.97;;;17.00;1.00;;;;;;5096672;28;20450;-28
2023/05/26 07:56:01;;;;;;;17.60;3.55;;;17.30;1.00;;;;;;5095978;28;20052;-28
2023/05/26 07:58:26;;;;;;;15.00;3.20;;;17.40;1.00;;;;;;5094808;28;20048;-27
2023/05/26 08:00:52;;;;;;;14.05;3.50;;;17.50;1.00;;;;;;5095516;28;20101;-28
2023/05/26 08:03:18;;;;;;;11.98;3.90;;;17.20;1.00;;;;;;5095846;28;20047;-29
2023/05/26 08:05:44;;;;;;;15.98;3.65;;;17.30;1.00;;;;;;5095841;28;20040;-28
2023/05/26 08:08:10;;;;;;;15.15;3.85;;;17.30;1.00;;;;;;5094811;28;20079;-28
2023/05/26 08:10:36;;;;;;;17.40;3.78;;;17.50;1.00;;;;;;5096273;28;20040;-28
2023/05/26 08:13:02;;;;;;;12.73;2.95;;;17.40;1.00;;;;;;5094840;28;20093;-28
2023/05/26 08:15:27;;;;;;;15.45;3.42;;;17.50;1.00;;;;;;5095285;28;20040;-28
2023/05/26 08:17:53;;;;;;;13.23;3.45;;;17.70;1.00;;;;;;5095597;28;20467;-27
2023/05/26 08:20:19;;;;;;;16.10;3.75;;;18.00;1.00;;;;;;5094376;28;20135;-28
2023/05/26 08:22:45;;;;;;;11.20;3.40;;;18.00;1.00;;;;;;5095484;28;20048;-27
2023/05/26 08:25:12;;;;;;;17.17;3.78;;;18.00;1.00;;;;;;5094553;28;20098;-27
2023/05/26 08:27:38;;;;;;;16.00;3.78;;;18.00;1.00;;;;;;5095153;28;20410;-28
2023/05/26 08:30:05;;;;;;;11.38;2.67;;;18.50;1.00;;;;;;5094975;28;20556;-28
2023/05/26 08:32:31;;;;;;;13.07;2.75;;;18.80;1.00;;;;;;5095877;28;20043;-28
2023/05/26 08:34:56;;;;;;;15.90;3.08;;;18.70;1.00;;;;;;5077332;28;20394;-28
2023/05/26 08:37:22;;;;;;;15.15;3.50;;;18.60;1.00;;;;;;5093963;28;20044;-28
2023/05/26 08:39:48;;;;;;;13.18;2.97;;;18.40;1.00;;;;;;5094027;28;20113;-28
2023/05/26 08:42:20;;;;;;;15.23;3.67;;;18.60;1.00;;;;;;5095139;28;20074;-27
2023/05/26 08:44:46;;;;;;;16.45;4.38;;;18.50;1.00;;;;;;5094005;28;20039;-28
2023/05/26 08:47:13;;;;;;;12.20;2.97;;;18.20;1.00;;;;;;5095032;28;20093;-28
2023/05/26 08:49:46;;;;;;;11.77;2.83;;;18.00;1.00;;;;;;5094008;28;20052;-28
2023/05/26 08:52:14;;;;;;;10.30;2.35;;;18.00;1.00;;;;;;5095154;28;20059;-28
2023/05/26 08:54:44;;;;;;;12.70;3.72;;;18.00;99.90;;;;;;5094438;28;20051;-27
2023/05/26 08:57:12;;;;;;;13.75;3.40;;;17.90;99.90;;;;;;5095211;28;20462;-28
2023/05/26 08:59:38;;;;;;;14.90;3.20;;;18.10;1.00;;;;;;5094792;28;20040;-28
2023/05/26 09:02:04;;;;;;;13.23;2.95;;;18.50;1.00;;;;;;5094788;28;20044;-28
2023/05/26 09:04:30;;;;;;;16.25;3.22;;;18.80;1.00;;;;;;5094264;28;20131;-29
2023/05/26 09:06:57;;;;;;;15.73;3.67;;;18.90;1.00;;;;;;5094553;28;20048;-28
2023/05/26 09:09:23;;;;;;;24.10;4.18;;;18.60;99.90;;;;;;5094674;28;20040;-28
2023/05/26 09:11:49;;;;;;;13.80;3.30;;;18.30;99.90;;;;;;5093593;28;20048;-29
2023/05/26 09:14:16;;;;;;;11.75;3.38;;;18.30;1.00;;;;;;5095229;28;20044;-28
2023/05/26 09:16:43;;;;;;;13.05;3.92;;;18.50;99.90;;;;;;5094078;28;20043;-28
2023/05/26 09:19:14;;;;;;;9.95;3.35;;;18.30;99.90;;;;;;5094480;28;20055;-28
2023/05/26 09:21:46;;;;;;;15.05;3.00;;;18.60;1.00;;;;;;5093216;28;20044;-33
2023/05/26 09:24:18;;;;;;;18.20;3.60;;;19.10;1.00;;;;;;5095021;28;20384;-28
2023/05/26 09:26:46;;;;;;;14.65;3.22;;;19.10;1.00;;;;;;5093205;28;20044;-28
2023/05/26 09:29:12;;;;;;;14.05;3.28;;;19.40;1.00;;;;;;5094269;28;20052;-29
2023/05/26 09:31:42;;;;;;;13.50;3.03;;;18.90;99.90;;;;;;5094275;28;20123;-28
2023/05/26 09:34:09;;;;;;;11.95;2.85;;;18.70;99.90;;;;;;5094129;28;20086;-28
2023/05/26 09:36:36;;;;;;;13.15;3.20;;;18.90;99.90;;;;;;5095008;28;20379;-28
2023/05/26 09:39:09;;;;;;;15.05;3.22;;;18.60;99.90;;;;;;5094939;28;20436;-29
2023/05/26 09:41:40;;;;;;;20.30;3.47;;;19.10;1.00;;;;;;5094395;28;20040;-29
2023/05/26 09:44:11;;;;;;;11.25;3.05;;;19.80;1.00;;;;;;5094104;28;20040;-28
2023/05/26 09:46:37;;;;;;;9.88;2.78;;;20.20;1.00;;;;;;5094596;28;20051;-28
2023/05/26 09:49:15;;;;;;;12.73;3.10;;;20.00;1.00;;;;;;5093396;28;20043;-28
2023/05/26 09:51:50;;;;;;;14.13;3.60;;;20.10;1.00;;;;;;5092645;28;20065;-28
2023/05/26 09:54:16;;;;;;;15.23;3.40;;;20.30;1.00;;;;;;5094364;28;20490;-28
2023/05/26 09:56:52;;;;;;;12.93;3.10;;;20.10;1.00;;;;;;5093532;28;20055;-28
2023/05/26 09:59:21;;;;;;;12.25;3.03;;;19.80;99.90;;;;;;5093914;28;20051;-28
2023/05/26 10:01:47;;;;;;;13.55;3.30;;;19.70;99.90;;;;;;5093798;28;20052;-28
2023/05/26 10:04:15;;;;;;;11.80;2.90;;;19.90;99.90;;;;;;5092823;28;20044;-28
2023/05/26 10:06:41;;;;;;;13.95;3.58;;;19.70;99.90;;;;;;5093743;28;20059;-29
2023/05/26 10:09:08;;;;;;;13.07;2.95;;;19.50;99.90;;;;;;5093781;28;20063;-27
2023/05/26 10:11:39;;;;;;;12.13;4.35;;;19.30;99.90;;;;;;5092993;28;20109;-28
2023/05/26 10:14:05;;;;;;;14.23;3.05;;;19.40;99.90;;;;;;5093601;28;20483;-28
2023/05/26 10:16:32;;;;;;;12.40;3.13;;;19.50;99.90;;;;;;5092431;28;20130;-28
2023/05/26 10:18:58;;;;;;;12.82;3.13;;;19.60;99.90;;;;;;5093616;28;20133;-28
2023/05/26 10:21:31;;;;;;;14.43;3.78;;;19.60;99.90;;;;;;5093647;28;20051;-28
2023/05/26 10:24:08;;;;;;;9.25;2.67;;;20.20;99.90;;;;;;5097674;28;20067;-26
2023/05/26 10:26:51;;;;;;;12.15;3.10;;;20.50;99.90;;;;;;5095806;28;20052;-28
2023/05/26 10:29:21;;;;;;;14.82;3.20;;;20.80;1.00;;;;;;5108752;28;20044;-29
2023/05/26 10:31:47;;;;;;;14.73;3.47;;;20.30;99.90;;;;;;5112593;28;20044;-28
2023/05/26 10:34:14;;;;;;;11.85;3.30;;;20.20;99.90;;;;;;5113824;28;20044;-28
2023/05/26 10:36:41;;;;;;;16.95;3.55;;;20.10;99.90;;;;;;5112835;28;20122;-28
2023/05/26 10:39:11;;;;;;;8.77;2.85;;;20.10;99.90;;;;;;5116882;27;20459;-29
2023/05/26 10:41:50;;;;;;;15.45;3.60;;;19.90;99.90;;;;;;5117840;28;20046;-29
2023/05/26 10:44:54;;;;;;;11.20;2.92;;;19.70;99.90;;;;;;5117877;28;20048;-28
2023/05/26 10:47:20;;;;;;;14.60;3.03;;;19.70;99.90;;;;;;5118449;28;20050;-28
2023/05/26 10:49:56;;;;;;;11.30;3.00;;;20.30;99.90;;;;;;5116012;28;20122;-28
2023/05/26 10:52:24;;;;;;;20.92;3.67;;;20.40;99.90;;;;;;5116415;28;20055;-29
2023/05/26 10:54:53;;;;;;;13.65;3.03;;;19.50;99.90;;;;;;5117555;28;20486;-29
2023/05/26 10:57:33;;;;;;;17.35;4.20;;;19.00;99.90;;;;;;5118127;28;20059;-28
2023/05/26 11:00:24;;;;;;;16.02;3.75;;;18.90;99.90;;;;;;5115838;28;20104;-28
2023/05/26 11:02:50;;;;;;;15.50;3.97;;;18.70;99.90;;;;;;5115094;28;20118;-28
2023/05/26 11:05:30;;;;;;;14.32;3.20;;;18.90;99.90;;;;;;5110616;28;20119;-29
2023/05/26 11:07:56;;;;;;;13.05;3.50;;;19.50;99.90;;;;;;5113868;28;20048;-27
2023/05/26 11:10:22;;;;;;;13.35;3.28;;;19.90;99.90;;;;;;5108131;28;20040;-30
2023/05/26 11:12:51;;;;;;;14.70;3.92;;;20.20;99.90;;;;;;5099835;28;20040;-27
2023/05/26 11:15:31;;;;;;;14.68;3.47;;;20.30;99.90;;;;;;5108105;28;20096;-28
2023/05/26 11:18:09;;;;;;;15.18;3.78;;;20.10;99.90;;;;;;5109442;28;20594;-28
2023/05/26 11:20:35;;;;;;;19.08;4.55;;;20.60;99.90;;;;;;5096152;28;20051;-26
2023/05/26 11:23:02;;;;;;;13.45;4.10;;;20.50;99.90;;;;;;5096507;28;20044;-28
2023/05/26 11:25:28;;;;;;;13.48;2.97;;;20.80;1.00;;;;;;5097207;28;20044;-28
2023/05/26 11:27:54;;;;;;;14.45;3.42;;;20.30;99.90;;;;;;5095671;28;20036;-28
2023/05/26 11:30:21;;;;;;;13.90;3.80;;;20.50;99.90;;;;;;5097270;28;20137;-28
2023/05/26 11:32:48;;;;;;;16.00;4.15;;;20.50;1.00;;;;;;5097296;28;20040;-28
2023/05/26 11:35:22;;;;;;;16.15;4.13;;;19.90;99.90;;;;;;5096399;28;20051;-28
2023/05/26 11:37:48;;;;;;;14.93;3.17;;;19.70;99.90;;;;;;5096461;28;20173;-29
2023/05/26 11:40:14;;;;;;;14.30;3.95;;;19.60;99.90;;;;;;5096347;28;20079;-28
2023/05/26 11:42:43;;;;;;;17.55;3.90;;;19.30;99.90;;;;;;5062330;28;20135;-29
2023/05/26 11:45:10;;;;;;;17.92;4.90;;;19.50;1.00;;;;;;5096239;28;20097;-28
2023/05/26 11:47:35;;;;;;;15.40;3.60;;;19.40;1.00;;;;;;5096025;28;20048;-29
2023/05/26 11:50:11;;;;;;;13.68;3.15;;;19.40;1.00;;;;;;5096462;28;20050;-28
2023/05/26 11:52:47;;;;;;;12.63;3.03;;;20.20;1.00;;;;;;5094784;28;20470;-28
2023/05/26 11:55:15;;;;;;;15.80;3.33;;;20.00;1.00;;;;;;5096901;28;20044;-29
2023/05/26 11:57:42;;;;;;;20.70;4.10;;;19.90;1.00;;;;;;5096055;28;20506;-28
2023/05/26 12:00:17;;;;;;;12.45;3.47;;;20.00;1.00;;;;;;5077862;28;20048;-28
2023/05/26 12:02:47;;;;;;;18.35;4.20;;;20.00;1.00;;;;;;5094944;28;20040;-28
2023/05/26 12:05:29;;;;;;;13.68;3.55;;;19.60;1.00;;;;;;5095900;28;20040;-28
2023/05/26 12:08:04;;;;;;;14.27;3.17;;;19.60;1.00;;;;;;5095983;28;20130;-28
2023/05/26 12:10:31;;;;;;;21.98;5.95;;;20.40;1.00;;;;;;5096559;28;20273;-28
2023/05/26 12:12:57;;;;;;;15.27;3.85;;;20.80;1.00;;;;;;5096262;28;20052;-29
2023/05/26 12:15:24;;;;;;;15.05;4.45;;;20.30;1.00;;;;;;5094444;28;20040;-29
2023/05/26 12:17:54;;;;;;;14.27;3.72;;;19.50;1.00;;;;;;5077841;28;20044;-28
2023/05/26 12:20:21;;;;;;;15.13;3.75;;;18.80;1.00;;;;;;5095559;28;20518;-28
2023/05/26 12:22:51;;;;;;;16.52;3.95;;;19.10;1.00;;;;;;5096075;28;20387;-28
2023/05/26 12:25:24;;;;;;;14.95;4.53;;;18.50;99.90;;;;;;5095504;28;20437;-28
2023/05/26 12:27:50;;;;;;;;;;;18.30;1.00;;;;;;5095239;28;20087;-27
2023/05/26 12:30:20;;;;;;;11.20;3.08;;;19.30;1.00;;;;;;5095511;28;19970;-27
2023/05/26 12:32:48;;;;;;;15.07;3.63;;;19.30;1.00;;;;;;5095419;28;20104;-28
2023/05/26 12:35:14;;;;;;;14.80;3.88;;;19.00;1.00;;;;;;5095302;28;20047;-29
2023/05/26 12:37:40;;;;;;;16.35;3.92;;;18.40;1.00;;;;;;5095551;28;20554;-27
2023/05/26 12:40:06;;;;;;;18.63;3.63;;;18.00;1.00;;;;;;5095204;28;20097;-28
2023/05/26 12:42:33;;;;;;;16.02;3.83;;;18.00;1.00;;;;;;5095242;28;20048;-28
2023/05/26 12:44:59;;;;;;;18.05;4.70;;;17.80;1.00;;;;;;5095160;28;20043;-28
2023/05/26 12:47:24;;;;;;;22.13;4.28;;;17.90;1.00;;;;;;5095055;28;20123;-27